METAR AND TAF INFORMATION
METAR FOR KAUS
ADDS - METARS form results

(1932 UTC 26 April 2018)
Data provider http://aviationweather.gov/adds/metars/
 
METAR text: KAUS 261853Z 03004KT 10SM CLR 22/09 A3001 RMK AO2 SLP157 T02170089
Conditions at: KAUS (AUSTIN , TX, US) observed 1853 UTC 26 April 2018
Temperature: 21.7°C (71°F)
Dewpoint: 8.9°C (48°F) [RH = 44%]
Pressure (altimeter): 30.01 inches Hg (1016.3 mb)
[Sea-level pressure: 1015.7 mb]
Winds: from the NNE (30 degrees) at 5 MPH (4 knots; 2.1 m/s)
Visibility: 10 or more miles (16+ km)
Ceiling: at least 12,000 feet AGL
Clouds: sky clear below 12,000 feet AGL
Weather: no significant weather observed at this time

Forecast for: KAUS (AUSTIN , TX, US)
Text: KAUS 261737Z 2618/2724 04005KT P6SM SKC
Forecast period: 1800 UTC 26 April 2018 to 0900 UTC 27 April 2018
Forecast type: FROM: standard forecast or significant change
Winds: from the NE (40 degrees) at 6 MPH (5 knots; 2.6 m/s)
Visibility: 6 or more miles (10+ km)
Clouds: clear skies
Weather: no significant weather forecast for this period
Forecast for: KAUS (AUSTIN , TX, US)
Text: KAUS 261737Z 2618/2724 04005KT P6SM SKC
Forecast period: 1800 UTC 26 April 2018 to 0900 UTC 27 April 2018
Forecast type: FROM: standard forecast or significant change
Winds: from the NE (40 degrees) at 6 MPH (5 knots; 2.6 m/s)
Visibility: 6 or more miles (10+ km)
Clouds: clear skies
Weather: no significant weather forecast for this period
Forecast for: KAUS (AUSTIN , TX, US)
Text: KAUS 261737Z 2618/2724 04005KT P6SM SKC
Forecast period: 0900 UTC 27 April 2018 to 0000 UTC 28 April 2018
Forecast type: FROM: standard forecast or significant change
Winds: variable direction winds at 3 MPH (3 knots; 1.6 m/s)
Visibility: 6 or more miles (10+ km)
Ceiling: 10000 feet AGL
Clouds: broken clouds at 10000 feet AGL
Weather: no significant weather forecast for this period
Forecast for: KAUS (AUSTIN , TX, US)
Text: KAUS 261737Z 2618/2724 04005KT P6SM SKC
Forecast period: 0900 UTC 27 April 2018 to 0000 UTC 28 April 2018
Forecast type: FROM: standard forecast or significant change
Winds: variable direction winds at 3 MPH (3 knots; 1.6 m/s)
Visibility: 6 or more miles (10+ km)
Ceiling: 10000 feet AGL
Clouds: broken clouds at 10000 feet AGL
Weather: no significant weather forecast for this period

 AIRPORT MAP

 RUNWAY INFORMATION
Runway 17L Runway length 9000 ft Runway width 150 ft
Runway elevation 492 ft Runway displaced threshold 0 ft Runway heading 179
Runway 35R Runway length 9000 ft Runway width 150 ft
Runway elevation 474 ft Runway displaced threshold 0 ft Runway heading 359
Runway 17R Runway length 12248 ft Runway width 150 ft
Runway elevation 542 ft Runway displaced threshold 0 ft Runway heading 179
Runway 35L Runway length 12248 ft Runway width 150 ft
Runway elevation 488 ft Runway displaced threshold 0 ft Runway heading 359

 AIRPORT FREQUENCIES
Type A/D Name APP/DEP Frequency 118.8 MHZ
Type ASOS Name ASOS Frequency 128.875 MHZ
Type ATIS Name ATIS Frequency 124.4 MHZ
Type CLD Name CLNC DEL Frequency 125.5 MHZ
Type GND Name GND Frequency 121.7 MHZ
Type OPS Name ARNG OPS Frequency 36.8 MHZ
Type RDO Name SAN ANGELO Frequency 122.55 MHZ
Type TWR Name TWR Frequency 121 MHZ
Type UNIC Name UNICOM Frequency 122.95 MHZ

 AIRPORT NEAR NAVIGATION AIDS
Type NDB Name Birdy Frequency 232 KHZ



v2.6.1